createdAt,value
2019-02-19T01:00:21.155Z,393.30
2019-02-19T01:02:52.733Z,389.53
2019-02-19T01:05:24.362Z,372.97
2019-02-19T01:07:55.879Z,405.33
2019-02-19T01:10:27.471Z,431.57
2019-02-19T01:12:58.920Z,430.27
2019-02-19T01:15:30.517Z,469.00
2019-02-19T01:18:01.991Z,554.87
2019-02-19T01:20:33.636Z,443.90
2019-02-19T01:23:05.200Z,482.30
2019-02-19T01:25:36.700Z,455.97
2019-02-19T01:28:08.241Z,422.17
2019-02-19T01:30:39.731Z,432.40
2019-02-19T01:33:11.377Z,402.37
2019-02-19T01:35:42.933Z,370.30
2019-02-19T01:38:16.711Z,374.97
2019-02-19T01:40:49.185Z,386.13
2019-02-19T01:43:20.731Z,396.47
2019-02-19T01:45:52.341Z,372.23
2019-02-19T01:48:25.321Z,395.05
2019-02-19T01:50:56.977Z,399.23
2019-02-19T01:53:28.649Z,412.03
2019-02-19T01:56:00.200Z,386.83
2019-02-19T01:58:31.791Z,383.97
2019-02-19T02:01:03.374Z,431.63
2019-02-19T02:03:35.016Z,419.80
2019-02-19T02:06:06.596Z,421.30
2019-02-19T02:08:38.223Z,381.43
2019-02-19T02:11:09.733Z,371.87
2019-02-19T02:13:41.437Z,401.33
2019-02-19T02:16:15.278Z,387.37
2019-02-19T02:18:46.722Z,303.13
2019-02-19T02:21:19.404Z,304.23
2019-02-19T02:23:50.990Z,342.43
2019-02-19T02:26:22.491Z,330.50
2019-02-19T02:28:56.790Z,319.97
2019-02-19T02:31:28.416Z,299.73
2019-02-19T02:34:00.044Z,268.67
2019-02-19T02:36:31.600Z,220.93
2019-02-19T02:39:03.515Z,198.60
2019-02-19T02:41:35.859Z,190.23
2019-02-19T02:44:07.446Z,175.82
2019-02-19T02:46:39.166Z,179.97
2019-02-19T02:49:10.685Z,165.83
2019-02-19T02:51:42.263Z,204.17
2019-02-19T02:54:15.540Z,232.83
2019-02-19T02:56:47.122Z,231.67
2019-02-19T02:59:18.567Z,266.27
2019-02-19T03:01:50.145Z,194.33
2019-02-19T03:04:21.686Z,300.23
2019-02-19T03:07:05.306Z,292.70
2019-02-19T03:09:36.884Z,290.60
2019-02-19T03:12:09.734Z,300.83
2019-02-19T03:14:42.160Z,288.42
2019-02-19T03:17:13.729Z,298.63
2019-02-19T03:19:45.247Z,267.07
2019-02-19T03:22:20.555Z,236.27
2019-02-19T03:24:52.071Z,297.70
2019-02-19T03:27:23.688Z,232.07
2019-02-19T03:29:55.112Z,304.77
2019-02-19T03:32:26.565Z,271.23
2019-02-19T03:34:58.076Z,222.83
2019-02-19T03:37:29.600Z,254.23
2019-02-19T03:40:01.247Z,276.25
2019-02-19T03:42:33.977Z,253.80
2019-02-19T03:45:06.432Z,220.47
2019-02-19T03:47:38.037Z,203.07
2019-02-19T03:50:09.809Z,183.10
2019-02-19T03:52:41.369Z,238.40
2019-02-19T03:55:12.428Z,221.60
2019-02-19T03:57:44.021Z,228.27
2019-02-19T04:00:31.925Z,208.40
2019-02-19T04:03:03.783Z,186.43
2019-02-19T04:05:35.352Z,173.87
2019-02-19T04:08:06.916Z,144.60
2019-02-19T04:10:38.383Z,127.97
2019-02-19T04:13:09.939Z,125.33
2019-02-19T04:15:41.612Z,115.77
2019-02-19T04:18:13.095Z,131.97
2019-02-19T04:20:44.803Z,178.53
2019-02-19T04:23:16.340Z,134.87
2019-02-19T04:25:47.855Z,160.57
2019-02-19T04:28:19.442Z,126.20
2019-02-19T04:30:50.892Z,145.77
2019-02-19T04:33:22.376Z,119.07
2019-02-19T04:35:53.871Z,135.37
2019-02-19T04:38:25.388Z,149.40
2019-02-19T04:40:56.980Z,110.78
2019-02-19T04:43:28.446Z,112.27
2019-02-19T04:45:59.950Z,111.73
2019-02-19T04:48:31.417Z,99.87
2019-02-19T04:51:02.953Z,91.40
2019-02-19T04:53:34.427Z,103.03
2019-02-19T04:56:06.025Z,111.90
2019-02-19T04:58:39.817Z,103.93
2019-02-19T05:01:11.574Z,117.87
2019-02-19T05:03:43.553Z,106.47
2019-02-19T05:06:15.277Z,113.83
2019-02-19T05:08:46.876Z,106.77
2019-02-19T05:11:18.443Z,101.23
2019-02-19T05:13:50.019Z,99.03
2019-02-19T05:16:21.554Z,103.30
2019-02-19T05:18:53.215Z,101.17
2019-02-19T05:21:24.789Z,97.03
2019-02-19T05:23:56.343Z,116.67
2019-02-19T05:26:29.250Z,113.93
2019-02-19T05:29:00.803Z,111.63
2019-02-19T05:31:32.336Z,103.53
2019-02-19T05:34:04.032Z,116.00
2019-02-19T05:36:35.548Z,114.07
2019-02-19T05:39:07.241Z,107.40
2019-02-19T05:41:38.769Z,125.53
2019-02-19T05:44:11.578Z,110.53
2019-02-19T05:46:49.589Z,104.27
2019-02-19T05:49:16.285Z,108.03
2019-02-19T05:51:48.879Z,116.37
2019-02-19T05:54:20.414Z,128.00
2019-02-19T05:56:51.905Z,119.70
2019-02-19T05:59:23.434Z,112.32
2019-02-19T06:01:54.938Z,128.97
2019-02-19T06:04:26.411Z,131.37
2019-02-19T06:06:57.906Z,122.67
2019-02-19T06:09:29.305Z,128.13
2019-02-19T06:12:00.777Z,109.03
2019-02-19T06:14:32.328Z,96.50
2019-02-19T06:17:03.832Z,87.57
2019-02-19T06:19:35.293Z,98.20
2019-02-19T06:22:06.901Z,104.47
2019-02-19T06:24:38.542Z,91.00
2019-02-19T06:27:10.239Z,84.90
2019-02-19T06:29:41.682Z,88.70
2019-02-19T06:32:13.250Z,83.82
2019-02-19T06:34:44.777Z,86.53
2019-02-19T06:37:16.264Z,76.90
2019-02-19T06:39:47.791Z,82.27
2019-02-19T06:42:19.341Z,69.10
2019-02-19T06:44:50.790Z,74.00
2019-02-19T06:47:22.267Z,88.15
2019-02-19T06:49:53.723Z,74.03
2019-02-19T06:52:25.202Z,81.80
2019-02-19T06:54:56.677Z,74.47
2019-02-19T06:57:28.071Z,79.83
2019-02-19T06:59:59.514Z,72.63
2019-02-19T07:02:45.885Z,77.60
2019-02-19T07:05:22.594Z,74.40
2019-02-19T07:07:56.546Z,74.83
2019-02-19T07:10:40.793Z,73.53
2019-02-19T07:13:17.189Z,82.00
2019-02-19T07:15:48.568Z,79.07
2019-02-19T07:18:21.182Z,76.05
2019-02-19T07:20:52.676Z,73.90
2019-02-19T07:23:24.074Z,74.47
2019-02-19T07:25:55.579Z,66.77
2019-02-19T07:28:27.354Z,74.00
2019-02-19T07:30:58.845Z,73.37
2019-02-19T07:33:30.227Z,77.58
2019-02-19T07:36:01.996Z,78.97
2019-02-19T07:38:34.199Z,77.00
2019-02-19T07:41:05.592Z,76.37
2019-02-19T07:43:36.968Z,71.20
2019-02-19T07:46:08.427Z,80.05
2019-02-19T07:48:39.868Z,76.10
2019-02-19T07:51:11.223Z,77.80
2019-02-19T07:53:42.783Z,75.40
2019-02-19T07:56:14.168Z,72.35
2019-02-19T07:58:45.575Z,71.50
2019-02-19T08:01:17.004Z,64.35
2019-02-19T08:03:48.555Z,62.08
2019-02-19T08:06:22.122Z,66.53
2019-02-19T08:08:55.367Z,67.53
2019-02-19T08:11:28.198Z,61.85
2019-02-19T08:13:59.641Z,65.67
2019-02-19T08:16:31.040Z,60.50
2019-02-19T08:19:02.564Z,64.27
2019-02-19T08:21:33.939Z,61.33
2019-02-19T08:24:05.383Z,54.27
2019-02-19T08:26:36.813Z,59.77
2019-02-19T08:29:13.784Z,58.28
2019-02-19T08:31:42.366Z,57.98
2019-02-19T08:34:13.762Z,59.25
2019-02-19T08:36:45.189Z,55.50
2019-02-19T08:39:16.673Z,51.60
2019-02-19T08:41:48.126Z,53.78
2019-02-19T08:44:19.537Z,55.95
2019-02-19T08:46:50.937Z,48.52
2019-02-19T08:49:22.460Z,55.43
2019-02-19T08:51:56.097Z,48.83
2019-02-19T08:54:27.410Z,51.23
2019-02-19T08:57:00.324Z,53.17
2019-02-19T08:59:31.847Z,45.70
2019-02-19T09:02:03.266Z,49.08
2019-02-19T09:04:34.800Z,49.30
2019-02-19T09:07:06.258Z,47.45
2019-02-19T09:09:37.783Z,49.53
2019-02-19T09:12:09.198Z,47.35
2019-02-19T09:14:40.600Z,52.17
2019-02-19T09:17:12.006Z,45.63
2019-02-19T09:19:43.429Z,43.63
2019-02-19T09:22:16.947Z,42.70
2019-02-19T09:24:48.370Z,44.18
2019-02-19T09:27:19.783Z,43.33
2019-02-19T09:29:51.236Z,38.75
2019-02-19T09:32:22.734Z,39.85
2019-02-19T09:34:55.209Z,42.95
2019-02-19T09:37:26.611Z,43.17
2019-02-19T09:39:58.104Z,42.83
2019-02-19T09:42:29.492Z,39.58
2019-02-19T09:45:00.943Z,41.13
2019-02-19T09:47:33.608Z,43.38
2019-02-19T09:50:05.515Z,39.35
2019-02-19T09:52:36.978Z,36.48
2019-02-19T09:55:08.737Z,38.10
2019-02-19T09:57:40.127Z,40.45
2019-02-19T10:00:12.391Z,40.73
2019-02-19T10:02:44.108Z,43.70
2019-02-19T10:05:15.739Z,36.10
2019-02-19T10:07:47.303Z,41.70
2019-02-19T10:10:18.990Z,39.50
2019-02-19T10:12:50.540Z,36.63
2019-02-19T10:15:22.047Z,50.58
2019-02-19T10:17:53.590Z,39.65
2019-02-19T10:20:26.714Z,39.38
2019-02-19T10:22:58.208Z,40.85
2019-02-19T10:25:30.840Z,38.95
2019-02-19T10:28:02.273Z,39.63
2019-02-19T10:30:34.748Z,43.35
2019-02-19T10:33:06.292Z,40.33
2019-02-19T10:35:37.748Z,39.27
2019-02-19T10:38:09.321Z,38.78
2019-02-19T10:40:40.747Z,37.25
2019-02-19T10:43:12.183Z,34.48
2019-02-19T10:45:43.747Z,33.88
2019-02-19T10:48:19.061Z,33.83
2019-02-19T10:50:48.404Z,31.70
2019-02-19T10:53:19.917Z,28.92
2019-02-19T10:55:51.443Z,40.23
2019-02-19T10:58:23.383Z,31.00
2019-02-19T11:00:55.164Z,31.57
2019-02-19T11:03:26.639Z,32.50
2019-02-19T11:05:58.154Z,30.00
2019-02-19T11:08:29.571Z,29.92
2019-02-19T11:11:02.270Z,31.50
2019-02-19T11:13:33.787Z,30.32
2019-02-19T11:16:06.484Z,31.90
2019-02-19T11:18:39.443Z,32.78
2019-02-19T11:21:19.031Z,34.45
2019-02-19T11:23:44.045Z,34.10
2019-02-19T11:26:15.483Z,31.37
2019-02-19T11:28:46.898Z,27.75
2019-02-19T11:31:18.465Z,28.80
2019-02-19T11:33:50.041Z,30.95
2019-02-19T11:36:21.475Z,27.07
2019-02-19T11:38:52.970Z,31.73
2019-02-19T11:41:25.451Z,26.42
2019-02-19T11:43:56.928Z,26.65
2019-02-19T11:46:28.475Z,30.72
2019-02-19T11:49:00.354Z,26.65
2019-02-19T11:51:31.823Z,26.97
2019-02-19T11:54:03.218Z,33.02
2019-02-19T11:56:34.731Z,26.77
2019-02-19T11:59:08.758Z,28.70
2019-02-19T12:01:41.009Z,30.80
2019-02-19T12:04:12.481Z,30.08
2019-02-19T12:06:43.930Z,31.80
2019-02-19T12:09:15.370Z,28.02
2019-02-19T12:11:46.848Z,26.97
2019-02-19T12:14:18.307Z,29.63
2019-02-19T12:16:49.704Z,30.52
2019-02-19T12:19:22.326Z,38.60
2019-02-19T12:21:54.749Z,35.28
2019-02-19T12:24:26.184Z,34.35
2019-02-19T12:26:57.808Z,28.52
2019-02-19T12:29:29.814Z,27.37
2019-02-19T12:32:01.329Z,31.17
2019-02-19T12:34:32.885Z,38.83
2019-02-19T12:37:04.298Z,31.37
2019-02-19T12:39:35.731Z,30.17
2019-02-19T12:42:07.264Z,34.50
2019-02-19T12:44:40.374Z,34.40
2019-02-19T12:47:14.122Z,30.55
2019-02-19T12:49:45.505Z,29.30
2019-02-19T12:52:17.039Z,33.08
2019-02-19T12:54:48.898Z,33.75
2019-02-19T12:57:20.252Z,31.27
2019-02-19T12:59:56.537Z,32.48
2019-02-19T13:02:24.913Z,39.00
2019-02-19T13:04:56.378Z,29.18
2019-02-19T13:07:27.826Z,29.32
2019-02-19T13:09:59.346Z,35.58
2019-02-19T13:12:30.859Z,32.13
2019-02-19T13:15:02.389Z,31.50
2019-02-19T13:17:35.011Z,30.30
2019-02-19T13:20:07.099Z,32.63
2019-02-19T13:22:38.856Z,32.42
2019-02-19T13:25:10.767Z,35.68
2019-02-19T13:27:43.871Z,33.08
2019-02-19T13:30:16.120Z,31.40
2019-02-19T13:32:47.581Z,33.78
2019-02-19T13:35:19.062Z,34.08
2019-02-19T13:37:51.553Z,32.20
2019-02-19T13:40:23.137Z,41.02
2019-02-19T13:42:54.533Z,32.23
2019-02-19T13:45:27.534Z,32.50
2019-02-19T13:48:05.668Z,37.30
2019-02-19T13:50:32.076Z,31.02
2019-02-19T13:53:26.574Z,36.30
2019-02-19T13:55:59.017Z,33.33
2019-02-19T13:58:30.428Z,43.48
2019-02-19T14:01:01.914Z,40.28
2019-02-19T14:03:33.457Z,43.20
2019-02-19T14:06:04.892Z,47.48
2019-02-19T14:08:36.307Z,51.80
2019-02-19T14:11:07.782Z,47.08
2019-02-19T14:13:42.112Z,49.42
2019-02-19T14:16:20.522Z,49.35
2019-02-19T14:19:00.907Z,49.98
2019-02-19T14:22:09.695Z,44.88
2019-02-19T14:25:06.055Z,48.33
2019-02-19T14:27:55.613Z,43.58
2019-02-19T14:30:39.467Z,50.17
2019-02-19T14:33:27.423Z,48.95
2019-02-19T14:36:17.745Z,41.73
2019-02-19T14:39:06.883Z,42.00
2019-02-19T14:42:02.405Z,42.17
2019-02-19T14:44:52.750Z,36.55
2019-02-19T14:47:42.423Z,40.08
2019-02-19T14:50:47.961Z,45.43
2019-02-19T14:53:41.073Z,41.42
2019-02-19T14:56:30.313Z,34.48
2019-02-19T14:59:29.981Z,41.77
2019-02-19T15:02:19.231Z,45.73
2019-02-19T15:05:08.676Z,44.83
2019-02-19T15:07:45.834Z,44.48
2019-02-19T15:10:48.577Z,42.62
2019-02-19T15:13:42.070Z,54.70
2019-02-19T15:16:36.611Z,54.60
2019-02-19T15:19:39.313Z,52.10
2019-02-19T15:22:28.313Z,47.43
2019-02-19T15:25:12.357Z,43.55
2019-02-19T15:27:56.148Z,40.08
2019-02-19T15:30:37.686Z,39.13
2019-02-19T15:33:19.628Z,39.05
2019-02-19T15:36:13.172Z,41.98
2019-02-19T15:39:04.254Z,46.00
2019-02-19T15:42:00.035Z,41.58
2019-02-19T15:44:56.441Z,35.63
2019-02-19T15:47:39.861Z,37.15
2019-02-19T15:50:31.617Z,42.30
2019-02-19T15:53:21.949Z,35.17
2019-02-19T15:56:21.888Z,41.83
2019-02-19T15:59:02.725Z,35.35
2019-02-19T16:01:50.301Z,36.30
2019-02-19T16:04:36.759Z,37.08
2019-02-19T16:07:27.276Z,43.60
2019-02-19T16:10:20.076Z,40.00
2019-02-19T16:13:09.328Z,45.12
2019-02-19T16:15:55.601Z,43.08
2019-02-19T16:18:43.866Z,43.30
2019-02-19T16:21:41.929Z,42.40
2019-02-19T16:24:35.082Z,45.67
2019-02-19T16:27:15.177Z,44.80
2019-02-19T16:30:15.450Z,49.10
2019-02-19T16:33:17.015Z,43.40
2019-02-19T16:36:22.738Z,45.55
2019-02-19T16:39:18.443Z,42.95
2019-02-19T16:42:19.099Z,46.70
2019-02-19T16:45:13.434Z,43.98
2019-02-19T16:48:29.595Z,47.95
2019-02-19T16:51:19.640Z,48.95
2019-02-19T16:57:32.769Z,46.98
2019-02-19T17:00:13.236Z,45.12
2019-02-19T17:03:13.794Z,43.02
2019-02-19T17:05:58.516Z,43.38
2019-02-19T17:08:51.067Z,46.10
2019-02-19T17:11:32.607Z,43.10
2019-02-19T17:14:21.718Z,45.63
2019-02-19T17:17:10.983Z,38.60
2019-02-19T17:20:21.022Z,37.88
2019-02-19T17:23:05.004Z,44.18
2019-02-19T17:26:04.524Z,38.88
2019-02-19T17:29:04.237Z,42.95
2019-02-19T17:31:43.705Z,40.70
2019-02-19T17:34:30.738Z,37.10
2019-02-19T17:37:33.321Z,37.78
2019-02-19T17:40:27.078Z,40.73
2019-02-19T17:43:09.545Z,41.50
2019-02-19T17:46:03.466Z,41.70
2019-02-19T17:49:09.140Z,39.90
2019-02-19T17:52:14.845Z,36.95
2019-02-19T17:55:08.481Z,42.58
2019-02-19T17:57:57.080Z,38.73
2019-02-19T18:00:38.965Z,36.38
2019-02-19T18:03:36.381Z,36.40
2019-02-19T18:06:19.693Z,36.42
2019-02-19T18:09:11.283Z,33.15
2019-02-19T18:11:50.726Z,35.65
2019-02-19T18:15:01.952Z,33.10
2019-02-19T18:18:19.903Z,38.13
2019-02-19T18:20:52.005Z,53.08
2019-02-19T18:23:23.556Z,39.35
2019-02-19T18:25:55.196Z,30.75
2019-02-19T18:28:26.814Z,48.83
2019-02-19T18:30:58.452Z,33.85
2019-02-19T18:33:30.196Z,30.85
2019-02-19T18:36:01.587Z,31.48
2019-02-19T18:38:34.374Z,26.52
2019-02-19T18:41:06.283Z,29.57
2019-02-19T18:43:38.199Z,30.60
2019-02-19T18:46:12.701Z,38.65
2019-02-19T18:48:44.595Z,46.83
2019-02-19T18:51:16.145Z,44.60
2019-02-19T18:53:48.717Z,41.50
2019-02-19T18:56:20.461Z,46.00
2019-02-19T18:58:52.290Z,37.80
2019-02-19T19:01:24.092Z,36.98
2019-02-19T19:03:55.980Z,35.80
2019-02-19T19:06:28.144Z,35.45
2019-02-19T19:09:03.832Z,30.23
2019-02-19T19:15:09.683Z,34.73
2019-02-19T19:17:42.482Z,31.70
2019-02-19T19:20:15.176Z,30.85
2019-02-19T19:22:47.240Z,29.27
2019-02-19T19:25:19.314Z,29.23
2019-02-19T19:27:55.513Z,29.10
2019-02-19T19:30:28.357Z,28.57
2019-02-19T19:33:05.780Z,28.10
2019-02-19T19:35:39.134Z,26.85
2019-02-19T19:38:10.760Z,28.50
2019-02-19T19:40:43.166Z,26.65
2019-02-19T19:43:20.672Z,23.42
2019-02-19T19:45:52.071Z,23.77
2019-02-19T19:48:27.796Z,23.80
2019-02-19T19:51:03.470Z,20.62
2019-02-19T19:53:35.110Z,25.37
2019-02-19T19:56:12.627Z,27.32
2019-02-19T19:58:44.578Z,30.17
2019-02-19T20:01:16.274Z,23.65
2019-02-19T20:03:56.501Z,23.87
2019-02-19T20:06:28.197Z,28.67
2019-02-19T20:08:59.713Z,27.27
2019-02-19T20:11:31.379Z,27.82
2019-02-19T20:14:05.518Z,24.92
2019-02-19T20:16:38.465Z,25.77
2019-02-19T20:19:19.681Z,27.37
2019-02-19T20:21:52.919Z,28.95
2019-02-19T20:24:24.492Z,33.00
2019-02-19T20:26:56.219Z,30.92
2019-02-19T20:29:27.841Z,27.95
2019-02-19T20:32:00.977Z,35.43
2019-02-19T20:34:32.534Z,33.40
2019-02-19T20:37:07.167Z,28.17
2019-02-19T20:39:44.391Z,35.38
2019-02-19T20:42:16.067Z,34.23
2019-02-19T20:44:47.851Z,32.48
2019-02-19T20:47:19.979Z,30.12
2019-02-19T20:50:16.948Z,34.20
2019-02-19T20:52:50.219Z,34.75
2019-02-19T20:55:23.172Z,34.88
2019-02-19T20:58:00.443Z,31.62
2019-02-19T21:00:57.981Z,32.85
2019-02-19T21:03:31.748Z,31.62
2019-02-19T21:06:05.811Z,35.60
2019-02-19T21:08:55.784Z,36.50
2019-02-19T21:11:33.747Z,31.48
2019-02-19T21:14:05.429Z,27.17
2019-02-19T21:16:37.712Z,31.77
2019-02-19T21:19:12.026Z,27.52
2019-02-19T21:21:45.149Z,28.27
2019-02-19T21:24:18.253Z,29.92
2019-02-19T21:26:59.697Z,25.85
2019-02-19T21:29:47.049Z,32.58
2019-02-19T21:32:28.462Z,27.60
2019-02-19T21:35:10.942Z,26.65
2019-02-19T21:38:36.413Z,24.90
2019-02-19T21:41:27.509Z,41.42
2019-02-19T21:44:23.461Z,29.20
2019-02-19T21:47:01.139Z,25.00
2019-02-19T21:54:24.154Z,29.77
2019-02-19T22:00:54.900Z,29.15
2019-02-19T22:03:35.534Z,27.85
2019-02-19T22:06:44.551Z,26.85
2019-02-19T22:09:39.325Z,30.57
2019-02-19T22:12:23.513Z,23.70
2019-02-19T22:15:03.669Z,24.87
2019-02-19T22:17:41.420Z,28.17
2019-02-19T22:21:19.838Z,28.73
2019-02-19T22:24:02.254Z,28.73
2019-02-19T22:26:42.218Z,25.45
2019-02-19T22:29:35.250Z,23.20
2019-02-19T22:32:18.893Z,28.12
2019-02-19T22:35:02.304Z,29.32
2019-02-19T22:37:43.694Z,30.55
2019-02-19T22:40:14.994Z,25.57
2019-02-19T22:42:48.157Z,26.68
2019-02-19T22:45:19.606Z,22.13
2019-02-19T22:47:53.386Z,18.17
2019-02-19T22:50:24.401Z,23.62
2019-02-19T22:52:55.974Z,20.55
2019-02-19T22:55:52.392Z,21.57
2019-02-19T22:58:23.924Z,17.23
2019-02-19T23:01:12.459Z,15.28
2019-02-19T23:03:44.636Z,21.52
2019-02-19T23:06:16.121Z,12.75
2019-02-19T23:08:47.526Z,15.83
2019-02-19T23:11:19.333Z,17.67
2019-02-19T23:13:52.308Z,13.30
2019-02-19T23:16:23.782Z,14.80
2019-02-19T23:18:55.230Z,15.40
2019-02-19T23:21:26.721Z,14.40
2019-02-19T23:23:58.250Z,14.13
2019-02-19T23:26:29.747Z,14.18
2019-02-19T23:29:01.270Z,13.22
2019-02-19T23:31:33.923Z,13.20
2019-02-19T23:34:05.447Z,15.72
2019-02-19T23:36:58.215Z,16.75
2019-02-19T23:39:29.756Z,18.27
2019-02-19T23:42:01.242Z,19.77
2019-02-19T23:44:32.744Z,20.43
2019-02-19T23:47:05.122Z,19.45
2019-02-19T23:49:38.090Z,21.23
2019-02-19T23:52:09.598Z,26.27
2019-02-19T23:54:41.135Z,23.98
2019-02-19T23:57:12.852Z,21.37
2019-02-19T23:59:44.380Z,19.82
